sensor_id;sensor_type;location;lat;lon;timestamp;temperature;humidity
74384;DHT22;62824;52.994;-3.936;2023-11-21T00:00:14;9.20;99.90
74384;DHT22;62824;52.994;-3.936;2023-11-21T00:02:41;9.20;99.90
74384;DHT22;62824;52.994;-3.936;2023-11-21T00:05:11;9.10;99.90
74384;DHT22;62824;52.994;-3.936;2023-11-21T00:07:39;9.10;99.90
74384;DHT22;62824;52.994;-3.936;2023-11-21T00:10:06;9.00;99.90
74384;DHT22;62824;52.994;-3.936;2023-11-21T00:12:34;9.00;99.90
74384;DHT22;62824;52.994;-3.936;2023-11-21T00:15:00;9.10;99.90
74384;DHT22;62824;52.994;-3.936;2023-11-21T00:17:27;9.10;99.90
74384;DHT22;62824;52.994;-3.936;2023-11-21T00:19:53;9.00;99.90
74384;DHT22;62824;52.994;-3.936;2023-11-21T00:22:19;8.90;99.90
74384;DHT22;62824;52.994;-3.936;2023-11-21T00:24:45;8.80;99.90
74384;DHT22;62824;52.994;-3.936;2023-11-21T00:27:11;8.90;99.90
74384;DHT22;62824;52.994;-3.936;2023-11-21T00:29:37;8.90;99.90
74384;DHT22;62824;52.994;-3.936;2023-11-21T00:32:05;8.90;99.90
74384;DHT22;62824;52.994;-3.936;2023-11-21T00:34:31;8.90;99.90
74384;DHT22;62824;52.994;-3.936;2023-11-21T00:36:57;8.90;99.90
74384;DHT22;62824;52.994;-3.936;2023-11-21T00:39:23;8.80;99.90
74384;DHT22;62824;52.994;-3.936;2023-11-21T00:41:50;8.80;99.90
74384;DHT22;62824;52.994;-3.936;2023-11-21T00:44:16;8.80;99.90
74384;DHT22;62824;52.994;-3.936;2023-11-21T00:46:42;8.90;99.90
74384;DHT22;62824;52.994;-3.936;2023-11-21T00:49:08;8.90;99.90
74384;DHT22;62824;52.994;-3.936;2023-11-21T00:51:34;8.90;99.90
74384;DHT22;62824;52.994;-3.936;2023-11-21T00:54:00;8.90;99.90
74384;DHT22;62824;52.994;-3.936;2023-11-21T00:56:26;8.90;99.90
74384;DHT22;62824;52.994;-3.936;2023-11-21T00:58:51;8.90;99.90
74384;DHT22;62824;52.994;-3.936;2023-11-21T01:01:21;8.90;99.90
74384;DHT22;62824;52.994;-3.936;2023-11-21T01:03:50;8.90;99.90
74384;DHT22;62824;52.994;-3.936;2023-11-21T01:06:16;8.90;99.90
74384;DHT22;62824;52.994;-3.936;2023-11-21T01:08:43;8.80;99.90
74384;DHT22;62824;52.994;-3.936;2023-11-21T01:11:09;8.80;99.90
74384;DHT22;62824;52.994;-3.936;2023-11-21T01:13:38;8.80;99.90
74384;DHT22;62824;52.994;-3.936;2023-11-21T01:16:05;8.80;99.90
74384;DHT22;62824;52.994;-3.936;2023-11-21T01:18:32;8.70;99.90
74384;DHT22;62824;52.994;-3.936;2023-11-21T01:20:58;8.80;99.90
74384;DHT22;62824;52.994;-3.936;2023-11-21T01:23:24;8.80;99.90
74384;DHT22;62824;52.994;-3.936;2023-11-21T01:25:50;8.70;99.90
74384;DHT22;62824;52.994;-3.936;2023-11-21T01:28:17;8.60;99.90
74384;DHT22;62824;52.994;-3.936;2023-11-21T01:30:43;8.60;99.90
74384;DHT22;62824;52.994;-3.936;2023-11-21T01:33:10;8.60;99.90
74384;DHT22;62824;52.994;-3.936;2023-11-21T01:35:35;8.70;99.90
74384;DHT22;62824;52.994;-3.936;2023-11-21T01:38:01;8.70;99.90
74384;DHT22;62824;52.994;-3.936;2023-11-21T01:40:27;8.70;99.90
74384;DHT22;62824;52.994;-3.936;2023-11-21T01:42:54;8.70;99.90
74384;DHT22;62824;52.994;-3.936;2023-11-21T01:45:20;8.70;99.90
74384;DHT22;62824;52.994;-3.936;2023-11-21T01:47:46;8.70;99.90
74384;DHT22;62824;52.994;-3.936;2023-11-21T01:50:16;8.70;99.90
74384;DHT22;62824;52.994;-3.936;2023-11-21T01:52:45;8.70;99.90
74384;DHT22;62824;52.994;-3.936;2023-11-21T01:55:11;8.70;99.90
74384;DHT22;62824;52.994;-3.936;2023-11-21T01:57:38;8.70;99.90
74384;DHT22;62824;52.994;-3.936;2023-11-21T02:00:04;8.70;99.90
74384;DHT22;62824;52.994;-3.936;2023-11-21T02:02:45;8.70;99.90
74384;DHT22;62824;52.994;-3.936;2023-11-21T02:05:13;8.70;99.90
74384;DHT22;62824;52.994;-3.936;2023-11-21T02:07:40;8.70;99.90
74384;DHT22;62824;52.994;-3.936;2023-11-21T02:10:07;8.70;99.90
74384;DHT22;62824;52.994;-3.936;2023-11-21T02:12:33;8.70;99.90
74384;DHT22;62824;52.994;-3.936;2023-11-21T02:15:02;8.70;99.90
74384;DHT22;62824;52.994;-3.936;2023-11-21T02:17:31;8.70;99.90
74384;DHT22;62824;52.994;-3.936;2023-11-21T02:19:58;8.70;99.90
74384;DHT22;62824;52.994;-3.936;2023-11-21T02:22:27;8.70;99.90
74384;DHT22;62824;52.994;-3.936;2023-11-21T02:24:56;8.70;99.90
74384;DHT22;62824;52.994;-3.936;2023-11-21T02:27:24;8.70;99.90
74384;DHT22;62824;52.994;-3.936;2023-11-21T02:29:50;8.80;99.90
74384;DHT22;62824;52.994;-3.936;2023-11-21T02:32:16;8.70;99.90
74384;DHT22;62824;52.994;-3.936;2023-11-21T02:34:44;8.70;99.90
74384;DHT22;62824;52.994;-3.936;2023-11-21T02:37:10;8.70;99.90
74384;DHT22;62824;52.994;-3.936;2023-11-21T02:39:36;8.70;99.90
74384;DHT22;62824;52.994;-3.936;2023-11-21T02:42:02;8.70;99.90
74384;DHT22;62824;52.994;-3.936;2023-11-21T02:44:27;8.70;99.90
74384;DHT22;62824;52.994;-3.936;2023-11-21T02:46:53;8.60;99.90
74384;DHT22;62824;52.994;-3.936;2023-11-21T02:49:19;8.60;99.90
74384;DHT22;62824;52.994;-3.936;2023-11-21T02:51:45;8.60;99.90
74384;DHT22;62824;52.994;-3.936;2023-11-21T02:54:11;8.60;99.90
74384;DHT22;62824;52.994;-3.936;2023-11-21T02:56:37;8.60;99.90
74384;DHT22;62824;52.994;-3.936;2023-11-21T02:59:03;8.60;99.90
74384;DHT22;62824;52.994;-3.936;2023-11-21T03:01:29;8.60;99.90
74384;DHT22;62824;52.994;-3.936;2023-11-21T03:03:54;8.60;99.90
74384;DHT22;62824;52.994;-3.936;2023-11-21T03:06:21;8.60;99.90
74384;DHT22;62824;52.994;-3.936;2023-11-21T03:08:47;8.60;99.90
74384;DHT22;62824;52.994;-3.936;2023-11-21T03:11:14;8.60;99.90
74384;DHT22;62824;52.994;-3.936;2023-11-21T03:13:43;8.50;99.90
74384;DHT22;62824;52.994;-3.936;2023-11-21T03:16:09;8.60;99.90
74384;DHT22;62824;52.994;-3.936;2023-11-21T03:18:36;8.60;99.90
74384;DHT22;62824;52.994;-3.936;2023-11-21T03:21:03;8.60;99.90
74384;DHT22;62824;52.994;-3.936;2023-11-21T03:23:29;8.60;99.90
74384;DHT22;62824;52.994;-3.936;2023-11-21T03:25:55;8.50;99.90
74384;DHT22;62824;52.994;-3.936;2023-11-21T03:28:20;8.50;99.90
74384;DHT22;62824;52.994;-3.936;2023-11-21T03:30:46;8.50;99.90
74384;DHT22;62824;52.994;-3.936;2023-11-21T03:33:12;8.50;99.90
74384;DHT22;62824;52.994;-3.936;2023-11-21T03:35:38;8.50;99.90
74384;DHT22;62824;52.994;-3.936;2023-11-21T03:38:03;8.50;99.90
74384;DHT22;62824;52.994;-3.936;2023-11-21T03:40:30;8.50;99.90
74384;DHT22;62824;52.994;-3.936;2023-11-21T03:42:57;8.50;99.90
74384;DHT22;62824;52.994;-3.936;2023-11-21T03:45:23;8.50;99.90
74384;DHT22;62824;52.994;-3.936;2023-11-21T03:47:49;8.50;99.90
74384;DHT22;62824;52.994;-3.936;2023-11-21T03:50:15;8.50;99.90
74384;DHT22;62824;52.994;-3.936;2023-11-21T03:52:41;8.50;99.90
74384;DHT22;62824;52.994;-3.936;2023-11-21T03:55:07;8.40;99.90
74384;DHT22;62824;52.994;-3.936;2023-11-21T03:57:33;8.50;99.90
74384;DHT22;62824;52.994;-3.936;2023-11-21T03:59:59;8.50;99.90
74384;DHT22;62824;52.994;-3.936;2023-11-21T04:02:24;8.50;99.90
74384;DHT22;62824;52.994;-3.936;2023-11-21T04:04:53;8.50;99.90
74384;DHT22;62824;52.994;-3.936;2023-11-21T04:07:19;8.50;99.90
74384;DHT22;62824;52.994;-3.936;2023-11-21T04:09:46;8.40;99.90
74384;DHT22;62824;52.994;-3.936;2023-11-21T04:12:12;8.50;99.90
74384;DHT22;62824;52.994;-3.936;2023-11-21T04:14:38;8.50;99.90
74384;DHT22;62824;52.994;-3.936;2023-11-21T04:17:04;8.50;99.90
74384;DHT22;62824;52.994;-3.936;2023-11-21T04:19:30;8.50;99.90
74384;DHT22;62824;52.994;-3.936;2023-11-21T04:21:55;8.50;99.90
74384;DHT22;62824;52.994;-3.936;2023-11-21T04:24:21;8.40;99.90
74384;DHT22;62824;52.994;-3.936;2023-11-21T04:26:47;8.40;99.90
74384;DHT22;62824;52.994;-3.936;2023-11-21T04:29:13;8.40;99.90
74384;DHT22;62824;52.994;-3.936;2023-11-21T04:31:39;8.40;99.90
74384;DHT22;62824;52.994;-3.936;2023-11-21T04:34:05;8.50;99.90
74384;DHT22;62824;52.994;-3.936;2023-11-21T04:36:30;8.40;99.90
74384;DHT22;62824;52.994;-3.936;2023-11-21T04:38:57;8.50;99.90
74384;DHT22;62824;52.994;-3.936;2023-11-21T04:41:22;8.50;99.90
74384;DHT22;62824;52.994;-3.936;2023-11-21T04:43:48;8.50;99.90
74384;DHT22;62824;52.994;-3.936;2023-11-21T04:46:15;8.50;99.90
74384;DHT22;62824;52.994;-3.936;2023-11-21T04:48:40;8.50;99.90
74384;DHT22;62824;52.994;-3.936;2023-11-21T04:51:06;8.50;99.90
74384;DHT22;62824;52.994;-3.936;2023-11-21T04:53:32;8.40;99.90
74384;DHT22;62824;52.994;-3.936;2023-11-21T04:55:58;8.40;99.90
74384;DHT22;62824;52.994;-3.936;2023-11-21T04:58:24;8.50;99.90
74384;DHT22;62824;52.994;-3.936;2023-11-21T05:00:50;8.40;99.90
74384;DHT22;62824;52.994;-3.936;2023-11-21T05:03:16;8.40;99.90
74384;DHT22;62824;52.994;-3.936;2023-11-21T05:05:42;8.40;99.90
74384;DHT22;62824;52.994;-3.936;2023-11-21T05:08:07;8.40;99.90
74384;DHT22;62824;52.994;-3.936;2023-11-21T05:10:33;8.40;99.90
74384;DHT22;62824;52.994;-3.936;2023-11-21T05:12:59;8.40;99.90
74384;DHT22;62824;52.994;-3.936;2023-11-21T05:15:25;8.40;99.90
74384;DHT22;62824;52.994;-3.936;2023-11-21T05:17:53;8.40;99.90
74384;DHT22;62824;52.994;-3.936;2023-11-21T05:20:20;8.40;99.90
74384;DHT22;62824;52.994;-3.936;2023-11-21T05:22:49;8.40;99.90
74384;DHT22;62824;52.994;-3.936;2023-11-21T05:25:16;8.40;99.90
74384;DHT22;62824;52.994;-3.936;2023-11-21T05:27:44;8.30;99.90
74384;DHT22;62824;52.994;-3.936;2023-11-21T05:30:11;8.30;99.90
74384;DHT22;62824;52.994;-3.936;2023-11-21T05:32:38;8.40;99.90
74384;DHT22;62824;52.994;-3.936;2023-11-21T05:35:04;8.40;99.90
74384;DHT22;62824;52.994;-3.936;2023-11-21T05:37:37;8.40;99.90
74384;DHT22;62824;52.994;-3.936;2023-11-21T05:40:06;8.40;99.90
74384;DHT22;62824;52.994;-3.936;2023-11-21T05:42:33;8.40;99.90
74384;DHT22;62824;52.994;-3.936;2023-11-21T05:44:59;8.40;99.90
74384;DHT22;62824;52.994;-3.936;2023-11-21T05:47:42;8.30;99.90
74384;DHT22;62824;52.994;-3.936;2023-11-21T05:50:09;8.30;99.90
74384;DHT22;62824;52.994;-3.936;2023-11-21T05:52:40;8.30;99.90
74384;DHT22;62824;52.994;-3.936;2023-11-21T05:55:07;8.30;99.90
74384;DHT22;62824;52.994;-3.936;2023-11-21T05:57:34;8.30;99.90
74384;DHT22;62824;52.994;-3.936;2023-11-21T06:00:08;8.20;99.90
74384;DHT22;62824;52.994;-3.936;2023-11-21T06:02:41;8.20;99.90
74384;DHT22;62824;52.994;-3.936;2023-11-21T06:05:08;8.20;99.90
74384;DHT22;62824;52.994;-3.936;2023-11-21T06:07:34;8.20;99.90
74384;DHT22;62824;52.994;-3.936;2023-11-21T06:10:02;8.20;99.90
74384;DHT22;62824;52.994;-3.936;2023-11-21T06:12:31;8.20;99.90
74384;DHT22;62824;52.994;-3.936;2023-11-21T06:15:04;8.20;99.90
74384;DHT22;62824;52.994;-3.936;2023-11-21T06:17:34;8.20;99.90
74384;DHT22;62824;52.994;-3.936;2023-11-21T06:20:03;8.20;99.90
74384;DHT22;62824;52.994;-3.936;2023-11-21T06:22:36;8.20;99.90
74384;DHT22;62824;52.994;-3.936;2023-11-21T06:25:01;8.20;99.90
74384;DHT22;62824;52.994;-3.936;2023-11-21T06:27:28;8.20;99.90
74384;DHT22;62824;52.994;-3.936;2023-11-21T06:29:55;8.20;99.90
74384;DHT22;62824;52.994;-3.936;2023-11-21T06:32:20;8.10;99.90
74384;DHT22;62824;52.994;-3.936;2023-11-21T06:34:48;8.20;99.90
74384;DHT22;62824;52.994;-3.936;2023-11-21T06:37:15;8.10;99.90
74384;DHT22;62824;52.994;-3.936;2023-11-21T06:39:41;8.10;99.90
74384;DHT22;62824;52.994;-3.936;2023-11-21T06:42:07;8.10;99.90
74384;DHT22;62824;52.994;-3.936;2023-11-21T06:44:32;8.20;99.90
74384;DHT22;62824;52.994;-3.936;2023-11-21T06:46:59;8.20;99.90
74384;DHT22;62824;52.994;-3.936;2023-11-21T06:49:25;8.20;99.90
74384;DHT22;62824;52.994;-3.936;2023-11-21T06:51:51;8.10;99.90
74384;DHT22;62824;52.994;-3.936;2023-11-21T06:54:17;8.10;99.90
74384;DHT22;62824;52.994;-3.936;2023-11-21T06:56:43;8.10;99.90
74384;DHT22;62824;52.994;-3.936;2023-11-21T06:59:09;8.20;99.90
74384;DHT22;62824;52.994;-3.936;2023-11-21T07:01:36;8.20;99.90
74384;DHT22;62824;52.994;-3.936;2023-11-21T07:04:05;8.20;99.90
74384;DHT22;62824;52.994;-3.936;2023-11-21T07:06:31;8.30;99.90
74384;DHT22;62824;52.994;-3.936;2023-11-21T07:08:57;8.20;99.90
74384;DHT22;62824;52.994;-3.936;2023-11-21T07:11:24;8.20;99.90
74384;DHT22;62824;52.994;-3.936;2023-11-21T07:13:50;8.20;99.90
74384;DHT22;62824;52.994;-3.936;2023-11-21T07:16:18;8.20;99.90
74384;DHT22;62824;52.994;-3.936;2023-11-21T07:18:44;8.20;99.90
74384;DHT22;62824;52.994;-3.936;2023-11-21T07:21:10;8.20;99.90
74384;DHT22;62824;52.994;-3.936;2023-11-21T07:23:38;8.20;99.90
74384;DHT22;62824;52.994;-3.936;2023-11-21T07:26:04;8.20;99.90
74384;DHT22;62824;52.994;-3.936;2023-11-21T07:28:34;8.20;99.90
74384;DHT22;62824;52.994;-3.936;2023-11-21T07:31:01;8.20;99.90
74384;DHT22;62824;52.994;-3.936;2023-11-21T07:33:27;8.20;99.90
74384;DHT22;62824;52.994;-3.936;2023-11-21T07:35:53;8.20;99.90
74384;DHT22;62824;52.994;-3.936;2023-11-21T07:38:19;8.20;99.90
74384;DHT22;62824;52.994;-3.936;2023-11-21T07:40:45;8.20;99.90
74384;DHT22;62824;52.994;-3.936;2023-11-21T07:43:10;8.20;99.90
74384;DHT22;62824;52.994;-3.936;2023-11-21T07:45:37;8.20;99.90
74384;DHT22;62824;52.994;-3.936;2023-11-21T07:48:03;8.20;99.90
74384;DHT22;62824;52.994;-3.936;2023-11-21T07:50:30;8.20;99.90
74384;DHT22;62824;52.994;-3.936;2023-11-21T07:52:57;8.20;99.90
74384;DHT22;62824;52.994;-3.936;2023-11-21T07:55:23;8.20;99.90
74384;DHT22;62824;52.994;-3.936;2023-11-21T07:57:50;8.20;99.90
74384;DHT22;62824;52.994;-3.936;2023-11-21T08:00:16;8.20;99.90
74384;DHT22;62824;52.994;-3.936;2023-11-21T08:02:42;8.30;99.90
74384;DHT22;62824;52.994;-3.936;2023-11-21T08:05:09;8.30;99.90
74384;DHT22;62824;52.994;-3.936;2023-11-21T08:07:36;8.30;99.90
74384;DHT22;62824;52.994;-3.936;2023-11-21T08:10:02;8.20;99.90
74384;DHT22;62824;52.994;-3.936;2023-11-21T08:12:28;8.20;99.90
74384;DHT22;62824;52.994;-3.936;2023-11-21T08:14:54;8.20;99.90
74384;DHT22;62824;52.994;-3.936;2023-11-21T08:17:20;8.10;99.90
74384;DHT22;62824;52.994;-3.936;2023-11-21T08:19:46;8.20;99.90
74384;DHT22;62824;52.994;-3.936;2023-11-21T08:22:15;8.20;99.90
74384;DHT22;62824;52.994;-3.936;2023-11-21T08:24:44;8.20;99.90
74384;DHT22;62824;52.994;-3.936;2023-11-21T08:27:10;8.20;99.90
74384;DHT22;62824;52.994;-3.936;2023-11-21T08:29:35;8.20;99.90
74384;DHT22;62824;52.994;-3.936;2023-11-21T08:32:05;8.20;99.90
74384;DHT22;62824;52.994;-3.936;2023-11-21T08:34:31;8.20;99.90
74384;DHT22;62824;52.994;-3.936;2023-11-21T08:36:56;8.20;99.90
74384;DHT22;62824;52.994;-3.936;2023-11-21T08:39:22;8.20;99.90
74384;DHT22;62824;52.994;-3.936;2023-11-21T08:41:50;8.20;99.90
74384;DHT22;62824;52.994;-3.936;2023-11-21T08:44:19;8.20;99.90
74384;DHT22;62824;52.994;-3.936;2023-11-21T08:46:44;8.20;99.90
74384;DHT22;62824;52.994;-3.936;2023-11-21T08:49:11;8.30;99.90
74384;DHT22;62824;52.994;-3.936;2023-11-21T08:51:37;8.30;99.90
74384;DHT22;62824;52.994;-3.936;2023-11-21T08:54:04;8.30;99.90
74384;DHT22;62824;52.994;-3.936;2023-11-21T08:56:33;8.30;99.90
74384;DHT22;62824;52.994;-3.936;2023-11-21T08:58:59;8.30;99.90
74384;DHT22;62824;52.994;-3.936;2023-11-21T09:01:29;8.30;99.90
74384;DHT22;62824;52.994;-3.936;2023-11-21T09:03:57;8.30;99.90
74384;DHT22;62824;52.994;-3.936;2023-11-21T09:06:24;8.30;99.90
74384;DHT22;62824;52.994;-3.936;2023-11-21T09:08:51;8.30;99.90
74384;DHT22;62824;52.994;-3.936;2023-11-21T09:11:17;8.40;99.90
74384;DHT22;62824;52.994;-3.936;2023-11-21T09:13:43;8.30;99.90
74384;DHT22;62824;52.994;-3.936;2023-11-21T09:16:09;8.30;99.90
74384;DHT22;62824;52.994;-3.936;2023-11-21T09:18:35;8.30;99.90
74384;DHT22;62824;52.994;-3.936;2023-11-21T09:21:00;8.30;99.90
74384;DHT22;62824;52.994;-3.936;2023-11-21T09:23:26;8.30;99.90
74384;DHT22;62824;52.994;-3.936;2023-11-21T09:25:52;8.30;99.90
74384;DHT22;62824;52.994;-3.936;2023-11-21T09:28:22;8.30;99.90
74384;DHT22;62824;52.994;-3.936;2023-11-21T09:30:48;8.40;99.90
74384;DHT22;62824;52.994;-3.936;2023-11-21T09:33:15;8.40;99.90
74384;DHT22;62824;52.994;-3.936;2023-11-21T09:35:41;8.50;99.90
74384;DHT22;62824;52.994;-3.936;2023-11-21T09:38:09;8.40;99.90
74384;DHT22;62824;52.994;-3.936;2023-11-21T09:40:38;8.40;99.90
74384;DHT22;62824;52.994;-3.936;2023-11-21T09:43:12;8.50;99.90
74384;DHT22;62824;52.994;-3.936;2023-11-21T09:45:45;8.50;99.90
74384;DHT22;62824;52.994;-3.936;2023-11-21T09:48:11;8.50;99.90
74384;DHT22;62824;52.994;-3.936;2023-11-21T09:50:37;8.50;99.90
74384;DHT22;62824;52.994;-3.936;2023-11-21T09:53:19;8.50;99.90
74384;DHT22;62824;52.994;-3.936;2023-11-21T09:55:52;8.50;99.90
74384;DHT22;62824;52.994;-3.936;2023-11-21T09:58:19;8.70;99.90
74384;DHT22;62824;52.994;-3.936;2023-11-21T10:00:47;8.70;99.90
74384;DHT22;62824;52.994;-3.936;2023-11-21T10:03:14;8.70;99.90
74384;DHT22;62824;52.994;-3.936;2023-11-21T10:05:44;8.70;99.90
74384;DHT22;62824;52.994;-3.936;2023-11-21T10:08:11;8.70;99.90
74384;DHT22;62824;52.994;-3.936;2023-11-21T10:10:41;8.70;99.90
74384;DHT22;62824;52.994;-3.936;2023-11-21T10:13:12;8.90;99.90
74384;DHT22;62824;52.994;-3.936;2023-11-21T10:15:38;9.00;99.90
74384;DHT22;62824;52.994;-3.936;2023-11-21T10:18:04;9.20;99.90
74384;DHT22;62824;52.994;-3.936;2023-11-21T10:20:32;9.20;99.90
74384;DHT22;62824;52.994;-3.936;2023-11-21T10:23:03;9.60;99.90
74384;DHT22;62824;52.994;-3.936;2023-11-21T10:25:32;9.50;99.90
74384;DHT22;62824;52.994;-3.936;2023-11-21T10:28:01;9.30;99.90
74384;DHT22;62824;52.994;-3.936;2023-11-21T10:30:38;9.90;99.90
74384;DHT22;62824;52.994;-3.936;2023-11-21T10:33:07;10.30;99.90
74384;DHT22;62824;52.994;-3.936;2023-11-21T10:35:44;9.80;99.90
74384;DHT22;62824;52.994;-3.936;2023-11-21T10:38:19;9.50;99.90
74384;DHT22;62824;52.994;-3.936;2023-11-21T10:40:50;9.40;99.90
74384;DHT22;62824;52.994;-3.936;2023-11-21T10:43:16;9.50;99.90
74384;DHT22;62824;52.994;-3.936;2023-11-21T10:45:44;9.50;99.90
74384;DHT22;62824;52.994;-3.936;2023-11-21T10:48:12;9.50;99.90
74384;DHT22;62824;52.994;-3.936;2023-11-21T10:50:42;9.40;99.90
74384;DHT22;62824;52.994;-3.936;2023-11-21T10:53:09;9.40;99.90
74384;DHT22;62824;52.994;-3.936;2023-11-21T10:55:35;9.40;99.90
74384;DHT22;62824;52.994;-3.936;2023-11-21T10:58:04;9.30;99.90
74384;DHT22;62824;52.994;-3.936;2023-11-21T11:00:36;9.20;99.90
74384;DHT22;62824;52.994;-3.936;2023-11-21T11:03:03;9.10;99.90
74384;DHT22;62824;52.994;-3.936;2023-11-21T11:05:30;9.10;99.90
74384;DHT22;62824;52.994;-3.936;2023-11-21T11:08:08;9.20;99.90
74384;DHT22;62824;52.994;-3.936;2023-11-21T11:10:37;9.30;99.90
74384;DHT22;62824;52.994;-3.936;2023-11-21T11:13:03;9.30;99.90
74384;DHT22;62824;52.994;-3.936;2023-11-21T11:15:30;9.30;99.90
74384;DHT22;62824;52.994;-3.936;2023-11-21T11:17:56;9.30;99.90
74384;DHT22;62824;52.994;-3.936;2023-11-21T11:20:34;9.30;99.90
74384;DHT22;62824;52.994;-3.936;2023-11-21T11:26:16;9.30;99.90
74384;DHT22;62824;52.994;-3.936;2023-11-21T11:34:26;9.50;99.90
74384;DHT22;62824;52.994;-3.936;2023-11-21T11:37:01;9.60;99.90
74384;DHT22;62824;52.994;-3.936;2023-11-21T11:39:38;10.60;99.50
74384;DHT22;62824;52.994;-3.936;2023-11-21T11:42:08;10.30;97.40
74384;DHT22;62824;52.994;-3.936;2023-11-21T11:47:15;9.60;97.80
74384;DHT22;62824;52.994;-3.936;2023-11-21T11:52:49;9.90;96.80
74384;DHT22;62824;52.994;-3.936;2023-11-21T11:55:18;9.70;95.70
74384;DHT22;62824;52.994;-3.936;2023-11-21T11:57:46;9.60;95.60
74384;DHT22;62824;52.994;-3.936;2023-11-21T12:02:42;9.50;97.10
74384;DHT22;62824;52.994;-3.936;2023-11-21T12:05:14;9.40;99.40
74384;DHT22;62824;52.994;-3.936;2023-11-21T12:07:47;9.40;99.70
74384;DHT22;62824;52.994;-3.936;2023-11-21T12:10:18;9.40;97.00
74384;DHT22;62824;52.994;-3.936;2023-11-21T12:12:46;9.50;95.80
74384;DHT22;62824;52.994;-3.936;2023-11-21T12:15:12;9.50;94.60
74384;DHT22;62824;52.994;-3.936;2023-11-21T12:17:42;9.50;96.00
74384;DHT22;62824;52.994;-3.936;2023-11-21T12:20:12;9.60;96.40
74384;DHT22;62824;52.994;-3.936;2023-11-21T12:22:47;9.50;97.60
74384;DHT22;62824;52.994;-3.936;2023-11-21T12:25:25;9.50;98.00
74384;DHT22;62824;52.994;-3.936;2023-11-21T12:27:54;9.60;99.80
74384;DHT22;62824;52.994;-3.936;2023-11-21T12:30:22;9.60;99.90
74384;DHT22;62824;52.994;-3.936;2023-11-21T12:32:52;9.50;99.90
74384;DHT22;62824;52.994;-3.936;2023-11-21T12:35:21;9.50;99.90
74384;DHT22;62824;52.994;-3.936;2023-11-21T12:37:47;9.50;99.90
74384;DHT22;62824;52.994;-3.936;2023-11-21T12:40:14;9.40;99.90
74384;DHT22;62824;52.994;-3.936;2023-11-21T12:42:47;9.40;99.90
74384;DHT22;62824;52.994;-3.936;2023-11-21T12:47:54;9.60;99.90
74384;DHT22;62824;52.994;-3.936;2023-11-21T12:50:23;9.50;96.80
74384;DHT22;62824;52.994;-3.936;2023-11-21T12:52:50;9.50;96.30
74384;DHT22;62824;52.994;-3.936;2023-11-21T12:55:17;9.70;96.20
74384;DHT22;62824;52.994;-3.936;2023-11-21T12:57:45;9.80;95.60
74384;DHT22;62824;52.994;-3.936;2023-11-21T13:00:12;9.90;96.70
74384;DHT22;62824;52.994;-3.936;2023-11-21T13:02:51;9.80;97.50
74384;DHT22;62824;52.994;-3.936;2023-11-21T13:07:57;9.70;99.20
74384;DHT22;62824;52.994;-3.936;2023-11-21T13:10:26;9.50;99.90
74384;DHT22;62824;52.994;-3.936;2023-11-21T13:12:58;9.40;99.90
74384;DHT22;62824;52.994;-3.936;2023-11-21T13:15:30;9.40;99.90
74384;DHT22;62824;52.994;-3.936;2023-11-21T13:17:57;9.30;99.70
74384;DHT22;62824;52.994;-3.936;2023-11-21T13:20:24;9.20;99.70
74384;DHT22;62824;52.994;-3.936;2023-11-21T13:22:57;9.30;99.50
74384;DHT22;62824;52.994;-3.936;2023-11-21T13:25:28;9.30;99.90
74384;DHT22;62824;52.994;-3.936;2023-11-21T13:27:58;9.40;99.00
74384;DHT22;62824;52.994;-3.936;2023-11-21T13:30:24;9.40;97.30
74384;DHT22;62824;52.994;-3.936;2023-11-21T13:33:03;9.40;98.80
74384;DHT22;62824;52.994;-3.936;2023-11-21T13:35:37;9.40;99.90
74384;DHT22;62824;52.994;-3.936;2023-11-21T13:38:08;9.50;98.80
74384;DHT22;62824;52.994;-3.936;2023-11-21T13:40:35;9.60;98.30
74384;DHT22;62824;52.994;-3.936;2023-11-21T13:43:12;9.60;99.20
74384;DHT22;62824;52.994;-3.936;2023-11-21T13:45:43;9.60;99.00
74384;DHT22;62824;52.994;-3.936;2023-11-21T13:48:10;9.50;99.90
74384;DHT22;62824;52.994;-3.936;2023-11-21T13:50:46;9.50;99.90
74384;DHT22;62824;52.994;-3.936;2023-11-21T13:53:24;9.70;99.90
74384;DHT22;62824;52.994;-3.936;2023-11-21T13:55:54;9.70;99.90
74384;DHT22;62824;52.994;-3.936;2023-11-21T13:58:20;9.50;97.30
74384;DHT22;62824;52.994;-3.936;2023-11-21T14:01:12;9.40;96.80
74384;DHT22;62824;52.994;-3.936;2023-11-21T14:03:58;9.40;96.90
74384;DHT22;62824;52.994;-3.936;2023-11-21T14:06:33;9.40;99.40
74384;DHT22;62824;52.994;-3.936;2023-11-21T14:09:05;9.40;99.90
74384;DHT22;62824;52.994;-3.936;2023-11-21T14:11:33;9.40;99.90
74384;DHT22;62824;52.994;-3.936;2023-11-21T14:13:59;9.40;99.90
74384;DHT22;62824;52.994;-3.936;2023-11-21T14:16:25;9.40;99.90
74384;DHT22;62824;52.994;-3.936;2023-11-21T14:18:51;9.40;99.90
74384;DHT22;62824;52.994;-3.936;2023-11-21T14:21:34;9.40;99.90
74384;DHT22;62824;52.994;-3.936;2023-11-21T14:24:00;9.40;99.90
74384;DHT22;62824;52.994;-3.936;2023-11-21T14:26:26;9.30;99.90
74384;DHT22;62824;52.994;-3.936;2023-11-21T14:28:53;9.30;99.90
74384;DHT22;62824;52.994;-3.936;2023-11-21T14:31:19;9.20;99.90
74384;DHT22;62824;52.994;-3.936;2023-11-21T14:33:45;9.20;99.90
74384;DHT22;62824;52.994;-3.936;2023-11-21T14:36:11;9.20;99.90
74384;DHT22;62824;52.994;-3.936;2023-11-21T14:38:37;9.30;99.90
74384;DHT22;62824;52.994;-3.936;2023-11-21T14:41:05;9.30;99.90
74384;DHT22;62824;52.994;-3.936;2023-11-21T14:43:37;9.30;99.90
74384;DHT22;62824;52.994;-3.936;2023-11-21T14:46:04;9.20;99.90
74384;DHT22;62824;52.994;-3.936;2023-11-21T14:48:34;9.10;99.90
74384;DHT22;62824;52.994;-3.936;2023-11-21T14:51:13;9.10;99.90
74384;DHT22;62824;52.994;-3.936;2023-11-21T14:53:58;9.20;99.90
74384;DHT22;62824;52.994;-3.936;2023-11-21T14:56:34;9.20;99.90
74384;DHT22;62824;52.994;-3.936;2023-11-21T14:59:01;9.20;99.90
74384;DHT22;62824;52.994;-3.936;2023-11-21T15:01:41;9.30;99.90
74384;DHT22;62824;52.994;-3.936;2023-11-21T15:04:20;9.20;99.90
74384;DHT22;62824;52.994;-3.936;2023-11-21T15:07:00;9.20;99.90
74384;DHT22;62824;52.994;-3.936;2023-11-21T15:09:29;9.20;99.90
74384;DHT22;62824;52.994;-3.936;2023-11-21T15:12:01;9.20;99.90
74384;DHT22;62824;52.994;-3.936;2023-11-21T15:14:58;9.20;99.90
74384;DHT22;62824;52.994;-3.936;2023-11-21T15:17:24;9.20;99.90
74384;DHT22;62824;52.994;-3.936;2023-11-21T15:19:56;9.20;99.90
74384;DHT22;62824;52.994;-3.936;2023-11-21T15:22:22;9.20;99.90
74384;DHT22;62824;52.994;-3.936;2023-11-21T15:24:49;9.20;99.90
74384;DHT22;62824;52.994;-3.936;2023-11-21T15:27:15;9.20;99.90
74384;DHT22;62824;52.994;-3.936;2023-11-21T15:29:42;9.20;99.90
74384;DHT22;62824;52.994;-3.936;2023-11-21T15:32:09;9.20;99.90
74384;DHT22;62824;52.994;-3.936;2023-11-21T15:34:38;9.20;99.90
74384;DHT22;62824;52.994;-3.936;2023-11-21T15:37:05;9.20;99.90
74384;DHT22;62824;52.994;-3.936;2023-11-21T15:39:35;9.20;99.90
74384;DHT22;62824;52.994;-3.936;2023-11-21T15:42:01;9.20;99.90
74384;DHT22;62824;52.994;-3.936;2023-11-21T15:44:26;9.20;99.90
74384;DHT22;62824;52.994;-3.936;2023-11-21T15:46:53;9.10;99.90
74384;DHT22;62824;52.994;-3.936;2023-11-21T15:49:22;9.00;99.90
74384;DHT22;62824;52.994;-3.936;2023-11-21T15:51:49;8.90;99.90
74384;DHT22;62824;52.994;-3.936;2023-11-21T15:54:24;8.90;99.90
74384;DHT22;62824;52.994;-3.936;2023-11-21T15:56:52;8.90;99.90